Hauptseite
METAR-TAF:

METAR-TAF

Flughäfen :

Wattisham, England

Breite: 52-07N, Länge: 000-58E, Höhe: 87 m

Beobachtung

Neuester Wetterbericht von vor 1 Stunde und 16 Minuten, um 00:50 UTC
Wind 8 kt aus West
Temperatur 8°C
Luftfeuchtigkeit 93%
Luftdruck 1002 hPa
Sichtweite 10 km oder mehr

METAR: EGUW 070050Z AUTO 28008KT 9999 SCT050/// 08/07 Q1002

Zeit: 03:06 (02:06 UTC)


TAF: fehlend

Wetterbeobachtungen und Prognosen von mehr als 4000 Flughäfen (METAR und TAF Bericht).

Die verfügbaren Stationen werden durch gelbe und rote Markierungen auf der Karte dargestellt.

Führen Sie die Maus auf sie, um den Namen der Station zu sehen.

Darauf klicken, um die Beobachtung von Wetterbeobachtungen und Prognosen zu sehen.

Um die Karte zu ändern : klicken Sie auf den grünen Tasten mit einem schwarzen Kreuz Zum Vergrößern, auf den grünen Button mit einem Gedankenstrich zu verkleinern, oder auf die grünen Pfeile für benachbarte Karten.


METAR-TAF: